Terminal Aerodrome Forecast
Issued by NWS

Current Version | Previous Version | Graphics & Text | Print | Product List | Glossary On
Versions: 1 2 3 4 5 6 7 8 9 10 11 12 13 14 15 16 17 18 19 20
000
FTUS41 KILN 032359
TAFLCK
TAF
KLCK 032359Z 0400/0424 VRB04KT P6SM OVC035
     FM040500 VRB03KT P6SM FEW040 BKN150
     FM041500 11006KT P6SM BKN050
     FM042300 12006KT P6SM -SHRA OVC035=

USA.gov is the U.S. government's official web portal to all federal, state and local government web resources and services.